sensor_id;sensor_type;location;lat;lon;timestamp;P1;durP1;ratioP1;P2;durP2;ratioP2
55776;SDS011;54079;44.540;18.784;2024-01-30T00:02:14;5.22;;;3.50;;
55776;SDS011;54079;44.540;18.784;2024-01-30T00:04:40;7.43;;;3.40;;
55776;SDS011;54079;44.540;18.784;2024-01-30T00:07:06;5.28;;;3.53;;
55776;SDS011;54079;44.540;18.784;2024-01-30T00:09:32;9.35;;;5.75;;
55776;SDS011;54079;44.540;18.784;2024-01-30T00:11:58;5.32;;;2.97;;
55776;SDS011;54079;44.540;18.784;2024-01-30T00:14:24;5.00;;;3.42;;
55776;SDS011;54079;44.540;18.784;2024-01-30T00:16:50;7.68;;;4.38;;
55776;SDS011;54079;44.540;18.784;2024-01-30T00:19:17;6.78;;;4.70;;
55776;SDS011;54079;44.540;18.784;2024-01-30T00:21:43;6.80;;;3.63;;
55776;SDS011;54079;44.540;18.784;2024-01-30T00:24:09;7.53;;;3.80;;
55776;SDS011;54079;44.540;18.784;2024-01-30T00:26:35;5.72;;;3.67;;
55776;SDS011;54079;44.540;18.784;2024-01-30T00:29:01;5.50;;;3.50;;
55776;SDS011;54079;44.540;18.784;2024-01-30T00:31:27;6.70;;;4.18;;
55776;SDS011;54079;44.540;18.784;2024-01-30T00:33:53;6.15;;;2.42;;
55776;SDS011;54079;44.540;18.784;2024-01-30T00:36:19;7.03;;;3.00;;
55776;SDS011;54079;44.540;18.784;2024-01-30T00:38:45;3.00;;;2.00;;
55776;SDS011;54079;44.540;18.784;2024-01-30T00:41:11;5.55;;;2.78;;
55776;SDS011;54079;44.540;18.784;2024-01-30T00:43:37;5.07;;;2.80;;
55776;SDS011;54079;44.540;18.784;2024-01-30T00:46:03;3.85;;;2.67;;
55776;SDS011;54079;44.540;18.784;2024-01-30T00:48:29;5.00;;;3.03;;
55776;SDS011;54079;44.540;18.784;2024-01-30T00:50:55;5.30;;;2.97;;
55776;SDS011;54079;44.540;18.784;2024-01-30T00:53:21;4.53;;;2.70;;
55776;SDS011;54079;44.540;18.784;2024-01-30T00:55:47;6.07;;;3.00;;
55776;SDS011;54079;44.540;18.784;2024-01-30T00:58:13;5.57;;;2.92;;
55776;SDS011;54079;44.540;18.784;2024-01-30T01:00:39;4.88;;;2.78;;
55776;SDS011;54079;44.540;18.784;2024-01-30T01:03:05;6.55;;;3.30;;
55776;SDS011;54079;44.540;18.784;2024-01-30T01:05:31;6.63;;;2.55;;
55776;SDS011;54079;44.540;18.784;2024-01-30T01:07:57;4.28;;;2.40;;
55776;SDS011;54079;44.540;18.784;2024-01-30T01:10:23;6.43;;;3.03;;
55776;SDS011;54079;44.540;18.784;2024-01-30T01:12:49;10.15;;;5.60;;
55776;SDS011;54079;44.540;18.784;2024-01-30T01:15:15;8.23;;;3.45;;
55776;SDS011;54079;44.540;18.784;2024-01-30T01:17:41;4.75;;;2.50;;
55776;SDS011;54079;44.540;18.784;2024-01-30T01:20:07;6.65;;;3.15;;
55776;SDS011;54079;44.540;18.784;2024-01-30T01:22:34;5.43;;;3.53;;
55776;SDS011;54079;44.540;18.784;2024-01-30T01:25:01;6.13;;;3.88;;
55776;SDS011;54079;44.540;18.784;2024-01-30T01:27:27;5.18;;;3.53;;
55776;SDS011;54079;44.540;18.784;2024-01-30T01:29:53;6.47;;;3.10;;
55776;SDS011;54079;44.540;18.784;2024-01-30T01:32:19;6.70;;;3.42;;
55776;SDS011;54079;44.540;18.784;2024-01-30T01:34:45;9.82;;;4.15;;
55776;SDS011;54079;44.540;18.784;2024-01-30T01:37:11;5.95;;;3.50;;
55776;SDS011;54079;44.540;18.784;2024-01-30T01:39:37;5.78;;;3.28;;
55776;SDS011;54079;44.540;18.784;2024-01-30T01:42:03;3.92;;;2.90;;
55776;SDS011;54079;44.540;18.784;2024-01-30T01:44:29;2.55;;;1.75;;
55776;SDS011;54079;44.540;18.784;2024-01-30T01:46:55;4.88;;;2.78;;
55776;SDS011;54079;44.540;18.784;2024-01-30T01:49:24;4.32;;;2.88;;
55776;SDS011;54079;44.540;18.784;2024-01-30T01:51:53;8.07;;;3.50;;
55776;SDS011;54079;44.540;18.784;2024-01-30T01:54:21;4.55;;;2.90;;
55776;SDS011;54079;44.540;18.784;2024-01-30T01:56:49;3.65;;;2.33;;
55776;SDS011;54079;44.540;18.784;2024-01-30T01:59:16;3.40;;;1.98;;
55776;SDS011;54079;44.540;18.784;2024-01-30T02:01:43;4.45;;;2.20;;
55776;SDS011;54079;44.540;18.784;2024-01-30T02:04:10;5.15;;;2.50;;
55776;SDS011;54079;44.540;18.784;2024-01-30T02:06:36;5.60;;;2.50;;
55776;SDS011;54079;44.540;18.784;2024-01-30T02:09:03;3.47;;;2.33;;
55776;SDS011;54079;44.540;18.784;2024-01-30T02:11:29;3.92;;;2.20;;
55776;SDS011;54079;44.540;18.784;2024-01-30T02:14:01;3.80;;;2.47;;
55776;SDS011;54079;44.540;18.784;2024-01-30T02:16:29;3.60;;;2.30;;
55776;SDS011;54079;44.540;18.784;2024-01-30T02:18:55;4.32;;;2.08;;
55776;SDS011;54079;44.540;18.784;2024-01-30T02:21:21;3.15;;;2.13;;
55776;SDS011;54079;44.540;18.784;2024-01-30T02:23:47;4.65;;;2.63;;
55776;SDS011;54079;44.540;18.784;2024-01-30T02:26:15;3.47;;;2.03;;
55776;SDS011;54079;44.540;18.784;2024-01-30T02:28:41;5.22;;;2.92;;
55776;SDS011;54079;44.540;18.784;2024-01-30T02:31:06;5.97;;;2.85;;
55776;SDS011;54079;44.540;18.784;2024-01-30T02:33:32;5.55;;;3.05;;
55776;SDS011;54079;44.540;18.784;2024-01-30T02:35:58;6.63;;;3.38;;
55776;SDS011;54079;44.540;18.784;2024-01-30T02:38:24;5.55;;;2.80;;
55776;SDS011;54079;44.540;18.784;2024-01-30T02:40:52;5.32;;;2.67;;
55776;SDS011;54079;44.540;18.784;2024-01-30T02:43:18;6.70;;;2.45;;
55776;SDS011;54079;44.540;18.784;2024-01-30T02:45:44;4.07;;;2.15;;
55776;SDS011;54079;44.540;18.784;2024-01-30T02:48:10;4.47;;;2.28;;
55776;SDS011;54079;44.540;18.784;2024-01-30T02:50:36;5.38;;;2.58;;
55776;SDS011;54079;44.540;18.784;2024-01-30T02:53:02;4.60;;;2.92;;
55776;SDS011;54079;44.540;18.784;2024-01-30T02:55:29;3.38;;;2.25;;
55776;SDS011;54079;44.540;18.784;2024-01-30T02:57:54;5.47;;;2.35;;
55776;SDS011;54079;44.540;18.784;2024-01-30T03:00:20;3.05;;;1.92;;
55776;SDS011;54079;44.540;18.784;2024-01-30T03:02:46;4.97;;;2.80;;
55776;SDS011;54079;44.540;18.784;2024-01-30T03:05:12;4.25;;;2.42;;
55776;SDS011;54079;44.540;18.784;2024-01-30T03:07:38;3.88;;;1.92;;
55776;SDS011;54079;44.540;18.784;2024-01-30T03:10:04;4.57;;;1.50;;
55776;SDS011;54079;44.540;18.784;2024-01-30T03:12:33;4.78;;;2.63;;
55776;SDS011;54079;44.540;18.784;2024-01-30T03:14:59;4.65;;;2.03;;
55776;SDS011;54079;44.540;18.784;2024-01-30T03:17:25;4.78;;;2.10;;
55776;SDS011;54079;44.540;18.784;2024-01-30T03:19:51;4.68;;;2.20;;
55776;SDS011;54079;44.540;18.784;2024-01-30T03:22:17;3.78;;;2.17;;
55776;SDS011;54079;44.540;18.784;2024-01-30T03:24:43;3.05;;;2.10;;
55776;SDS011;54079;44.540;18.784;2024-01-30T03:27:09;3.88;;;2.10;;
55776;SDS011;54079;44.540;18.784;2024-01-30T03:29:35;4.57;;;2.15;;
55776;SDS011;54079;44.540;18.784;2024-01-30T03:32:01;4.30;;;2.58;;
55776;SDS011;54079;44.540;18.784;2024-01-30T03:34:29;4.95;;;2.72;;
55776;SDS011;54079;44.540;18.784;2024-01-30T03:36:55;5.45;;;3.22;;
55776;SDS011;54079;44.540;18.784;2024-01-30T03:39:21;6.03;;;2.80;;
55776;SDS011;54079;44.540;18.784;2024-01-30T03:41:47;6.43;;;3.65;;
55776;SDS011;54079;44.540;18.784;2024-01-30T03:44:13;5.88;;;3.15;;
55776;SDS011;54079;44.540;18.784;2024-01-30T03:46:38;5.35;;;2.80;;
55776;SDS011;54079;44.540;18.784;2024-01-30T03:49:05;5.40;;;2.92;;
55776;SDS011;54079;44.540;18.784;2024-01-30T03:51:30;3.63;;;2.63;;
55776;SDS011;54079;44.540;18.784;2024-01-30T03:53:56;3.47;;;2.30;;
55776;SDS011;54079;44.540;18.784;2024-01-30T03:56:22;7.25;;;2.83;;
55776;SDS011;54079;44.540;18.784;2024-01-30T03:58:50;8.35;;;3.67;;
55776;SDS011;54079;44.540;18.784;2024-01-30T04:01:16;6.68;;;3.33;;
55776;SDS011;54079;44.540;18.784;2024-01-30T04:03:43;4.78;;;2.92;;
55776;SDS011;54079;44.540;18.784;2024-01-30T04:06:09;6.38;;;3.58;;
55776;SDS011;54079;44.540;18.784;2024-01-30T04:08:36;6.88;;;3.70;;
55776;SDS011;54079;44.540;18.784;2024-01-30T04:11:03;7.53;;;4.40;;
55776;SDS011;54079;44.540;18.784;2024-01-30T04:13:31;8.10;;;4.00;;
55776;SDS011;54079;44.540;18.784;2024-01-30T04:15:59;9.02;;;4.68;;
55776;SDS011;54079;44.540;18.784;2024-01-30T04:18:26;11.93;;;7.03;;
55776;SDS011;54079;44.540;18.784;2024-01-30T04:20:53;13.38;;;6.53;;
55776;SDS011;54079;44.540;18.784;2024-01-30T04:23:19;9.40;;;4.13;;
55776;SDS011;54079;44.540;18.784;2024-01-30T04:25:45;8.23;;;3.55;;
55776;SDS011;54079;44.540;18.784;2024-01-30T04:28:11;8.20;;;4.43;;
55776;SDS011;54079;44.540;18.784;2024-01-30T04:30:37;11.07;;;6.40;;
55776;SDS011;54079;44.540;18.784;2024-01-30T04:33:04;12.30;;;6.05;;
55776;SDS011;54079;44.540;18.784;2024-01-30T04:35:30;8.68;;;4.80;;
55776;SDS011;54079;44.540;18.784;2024-01-30T04:37:56;5.10;;;2.90;;
55776;SDS011;54079;44.540;18.784;2024-01-30T04:40:22;7.65;;;2.90;;
55776;SDS011;54079;44.540;18.784;2024-01-30T04:42:48;18.92;;;8.75;;
55776;SDS011;54079;44.540;18.784;2024-01-30T04:45:14;12.75;;;5.72;;
55776;SDS011;54079;44.540;18.784;2024-01-30T04:47:40;7.88;;;3.92;;
55776;SDS011;54079;44.540;18.784;2024-01-30T04:50:06;8.20;;;4.30;;
55776;SDS011;54079;44.540;18.784;2024-01-30T04:52:33;7.30;;;3.97;;
55776;SDS011;54079;44.540;18.784;2024-01-30T04:55:00;6.40;;;3.70;;
55776;SDS011;54079;44.540;18.784;2024-01-30T04:57:26;4.60;;;2.92;;
55776;SDS011;54079;44.540;18.784;2024-01-30T04:59:52;5.60;;;3.40;;
55776;SDS011;54079;44.540;18.784;2024-01-30T05:02:18;10.50;;;4.50;;
55776;SDS011;54079;44.540;18.784;2024-01-30T05:04:44;7.78;;;4.22;;
55776;SDS011;54079;44.540;18.784;2024-01-30T05:07:10;9.38;;;5.68;;
55776;SDS011;54079;44.540;18.784;2024-01-30T05:09:35;10.10;;;4.70;;
55776;SDS011;54079;44.540;18.784;2024-01-30T05:12:02;5.90;;;3.70;;
55776;SDS011;54079;44.540;18.784;2024-01-30T05:14:28;10.38;;;4.47;;
55776;SDS011;54079;44.540;18.784;2024-01-30T05:16:53;10.15;;;5.55;;
55776;SDS011;54079;44.540;18.784;2024-01-30T05:19:19;7.65;;;4.28;;
55776;SDS011;54079;44.540;18.784;2024-01-30T05:21:48;10.43;;;5.03;;
55776;SDS011;54079;44.540;18.784;2024-01-30T05:24:14;10.18;;;4.45;;
55776;SDS011;54079;44.540;18.784;2024-01-30T05:26:40;5.47;;;3.55;;
55776;SDS011;54079;44.540;18.784;2024-01-30T05:29:06;5.25;;;2.47;;
55776;SDS011;54079;44.540;18.784;2024-01-30T05:31:33;7.95;;;3.25;;
55776;SDS011;54079;44.540;18.784;2024-01-30T05:33:59;6.25;;;2.40;;
55776;SDS011;54079;44.540;18.784;2024-01-30T05:36:25;2.58;;;1.50;;
55776;SDS011;54079;44.540;18.784;2024-01-30T05:38:51;4.20;;;2.78;;
55776;SDS011;54079;44.540;18.784;2024-01-30T05:41:18;13.02;;;6.72;;
55776;SDS011;54079;44.540;18.784;2024-01-30T05:43:46;9.18;;;4.72;;
55776;SDS011;54079;44.540;18.784;2024-01-30T05:46:12;7.80;;;4.32;;
55776;SDS011;54079;44.540;18.784;2024-01-30T05:48:38;4.88;;;2.88;;
55776;SDS011;54079;44.540;18.784;2024-01-30T05:51:04;5.47;;;3.05;;
55776;SDS011;54079;44.540;18.784;2024-01-30T05:53:32;6.00;;;3.20;;
55776;SDS011;54079;44.540;18.784;2024-01-30T05:55:59;4.32;;;2.30;;
55776;SDS011;54079;44.540;18.784;2024-01-30T05:58:26;3.55;;;1.90;;
55776;SDS011;54079;44.540;18.784;2024-01-30T06:00:52;4.80;;;2.83;;
55776;SDS011;54079;44.540;18.784;2024-01-30T06:03:18;10.52;;;4.90;;
55776;SDS011;54079;44.540;18.784;2024-01-30T06:05:44;10.75;;;5.60;;
55776;SDS011;54079;44.540;18.784;2024-01-30T06:08:10;7.65;;;3.47;;
55776;SDS011;54079;44.540;18.784;2024-01-30T06:10:36;11.77;;;5.95;;
55776;SDS011;54079;44.540;18.784;2024-01-30T06:13:02;8.35;;;4.45;;
55776;SDS011;54079;44.540;18.784;2024-01-30T06:15:28;6.90;;;4.30;;
55776;SDS011;54079;44.540;18.784;2024-01-30T06:17:55;8.55;;;4.72;;
55776;SDS011;54079;44.540;18.784;2024-01-30T06:20:21;7.00;;;3.35;;
55776;SDS011;54079;44.540;18.784;2024-01-30T06:22:47;4.63;;;2.30;;
55776;SDS011;54079;44.540;18.784;2024-01-30T06:25:12;6.78;;;3.85;;
55776;SDS011;54079;44.540;18.784;2024-01-30T06:27:38;6.88;;;4.00;;
55776;SDS011;54079;44.540;18.784;2024-01-30T06:30:04;5.85;;;3.47;;
55776;SDS011;54079;44.540;18.784;2024-01-30T06:32:31;5.93;;;2.80;;
55776;SDS011;54079;44.540;18.784;2024-01-30T06:35:01;7.72;;;2.65;;
55776;SDS011;54079;44.540;18.784;2024-01-30T06:37:27;6.78;;;4.13;;
55776;SDS011;54079;44.540;18.784;2024-01-30T06:39:53;8.23;;;4.13;;
55776;SDS011;54079;44.540;18.784;2024-01-30T06:42:19;9.52;;;5.10;;
55776;SDS011;54079;44.540;18.784;2024-01-30T06:44:45;8.77;;;5.38;;
55776;SDS011;54079;44.540;18.784;2024-01-30T06:47:11;6.00;;;3.90;;
55776;SDS011;54079;44.540;18.784;2024-01-30T06:49:37;5.57;;;3.30;;
55776;SDS011;54079;44.540;18.784;2024-01-30T06:52:06;6.88;;;3.90;;
55776;SDS011;54079;44.540;18.784;2024-01-30T06:54:32;8.55;;;5.22;;
55776;SDS011;54079;44.540;18.784;2024-01-30T06:56:59;7.88;;;4.28;;
55776;SDS011;54079;44.540;18.784;2024-01-30T06:59:25;8.85;;;3.63;;
55776;SDS011;54079;44.540;18.784;2024-01-30T07:01:51;6.35;;;3.38;;
55776;SDS011;54079;44.540;18.784;2024-01-30T07:04:17;8.93;;;4.50;;
55776;SDS011;54079;44.540;18.784;2024-01-30T07:06:43;13.13;;;6.75;;
55776;SDS011;54079;44.540;18.784;2024-01-30T07:09:09;9.45;;;5.07;;
55776;SDS011;54079;44.540;18.784;2024-01-30T07:11:35;8.05;;;3.90;;
55776;SDS011;54079;44.540;18.784;2024-01-30T07:14:01;7.97;;;4.13;;
55776;SDS011;54079;44.540;18.784;2024-01-30T07:16:30;4.20;;;2.72;;
55776;SDS011;54079;44.540;18.784;2024-01-30T07:18:56;7.13;;;3.50;;
55776;SDS011;54079;44.540;18.784;2024-01-30T07:21:22;15.95;;;7.68;;
55776;SDS011;54079;44.540;18.784;2024-01-30T07:23:53;5.47;;;3.30;;
55776;SDS011;54079;44.540;18.784;2024-01-30T07:26:20;4.22;;;3.05;;
55776;SDS011;54079;44.540;18.784;2024-01-30T07:28:46;3.97;;;2.50;;
55776;SDS011;54079;44.540;18.784;2024-01-30T07:31:12;5.43;;;3.63;;
55776;SDS011;54079;44.540;18.784;2024-01-30T07:33:38;10.50;;;5.53;;
55776;SDS011;54079;44.540;18.784;2024-01-30T07:36:03;7.93;;;4.88;;
55776;SDS011;54079;44.540;18.784;2024-01-30T07:38:33;8.60;;;5.05;;
55776;SDS011;54079;44.540;18.784;2024-01-30T07:40:59;11.30;;;10.18;;
55776;SDS011;54079;44.540;18.784;2024-01-30T07:43:25;12.93;;;11.82;;
55776;SDS011;54079;44.540;18.784;2024-01-30T07:45:51;16.02;;;14.52;;
55776;SDS011;54079;44.540;18.784;2024-01-30T07:48:17;11.40;;;7.13;;
55776;SDS011;54079;44.540;18.784;2024-01-30T07:50:43;10.95;;;7.65;;
55776;SDS011;54079;44.540;18.784;2024-01-30T07:53:09;18.52;;;16.75;;
55776;SDS011;54079;44.540;18.784;2024-01-30T07:55:35;19.42;;;18.02;;
55776;SDS011;54079;44.540;18.784;2024-01-30T07:58:01;24.35;;;22.25;;
55776;SDS011;54079;44.540;18.784;2024-01-30T08:00:28;24.40;;;22.38;;
55776;SDS011;54079;44.540;18.784;2024-01-30T08:02:54;24.13;;;22.13;;
55776;SDS011;54079;44.540;18.784;2024-01-30T08:05:20;21.50;;;19.90;;
55776;SDS011;54079;44.540;18.784;2024-01-30T08:07:50;18.70;;;17.80;;
55776;SDS011;54079;44.540;18.784;2024-01-30T08:10:16;22.35;;;20.90;;
55776;SDS011;54079;44.540;18.784;2024-01-30T08:12:45;26.85;;;24.77;;
55776;SDS011;54079;44.540;18.784;2024-01-30T08:15:11;26.65;;;24.83;;
55776;SDS011;54079;44.540;18.784;2024-01-30T08:17:38;29.95;;;27.95;;
55776;SDS011;54079;44.540;18.784;2024-01-30T08:20:05;1999.90;;;999.90;;
55776;SDS011;54079;44.540;18.784;2024-01-30T08:22:33;1999.90;;;999.90;;
55776;SDS011;54079;44.540;18.784;2024-01-30T08:24:59;1999.90;;;999.90;;
55776;SDS011;54079;44.540;18.784;2024-01-30T08:27:25;1999.90;;;999.90;;
55776;SDS011;54079;44.540;18.784;2024-01-30T08:29:51;1999.90;;;999.90;;
55776;SDS011;54079;44.540;18.784;2024-01-30T08:32:17;1999.90;;;999.90;;
55776;SDS011;54079;44.540;18.784;2024-01-30T08:34:43;1999.90;;;999.90;;
55776;SDS011;54079;44.540;18.784;2024-01-30T08:37:09;1999.90;;;999.90;;
55776;SDS011;54079;44.540;18.784;2024-01-30T08:39:35;1999.90;;;999.90;;
55776;SDS011;54079;44.540;18.784;2024-01-30T08:42:01;1999.90;;;999.90;;
55776;SDS011;54079;44.540;18.784;2024-01-30T08:44:27;1999.90;;;999.90;;
55776;SDS011;54079;44.540;18.784;2024-01-30T08:46:53;1999.90;;;999.90;;
55776;SDS011;54079;44.540;18.784;2024-01-30T08:49:19;48.92;;;45.90;;
55776;SDS011;54079;44.540;18.784;2024-01-30T08:51:46;38.08;;;35.08;;
55776;SDS011;54079;44.540;18.784;2024-01-30T08:54:12;23.85;;;21.50;;
55776;SDS011;54079;44.540;18.784;2024-01-30T08:56:38;28.00;;;23.13;;
55776;SDS011;54079;44.540;18.784;2024-01-30T08:59:04;21.23;;;16.73;;
55776;SDS011;54079;44.540;18.784;2024-01-30T09:01:30;22.10;;;17.92;;
55776;SDS011;54079;44.540;18.784;2024-01-30T09:03:56;21.17;;;16.80;;
55776;SDS011;54079;44.540;18.784;2024-01-30T09:06:22;19.88;;;17.25;;
55776;SDS011;54079;44.540;18.784;2024-01-30T09:08:49;25.13;;;19.52;;
55776;SDS011;54079;44.540;18.784;2024-01-30T09:11:15;21.63;;;17.40;;
55776;SDS011;54079;44.540;18.784;2024-01-30T09:13:41;17.25;;;13.50;;
55776;SDS011;54079;44.540;18.784;2024-01-30T09:16:08;13.48;;;10.48;;
55776;SDS011;54079;44.540;18.784;2024-01-30T09:18:34;15.13;;;11.95;;
55776;SDS011;54079;44.540;18.784;2024-01-30T09:21:00;17.15;;;14.43;;
55776;SDS011;54079;44.540;18.784;2024-01-30T09:23:29;22.80;;;17.70;;
55776;SDS011;54079;44.540;18.784;2024-01-30T09:25:56;21.65;;;16.88;;
55776;SDS011;54079;44.540;18.784;2024-01-30T09:28:22;25.65;;;19.50;;
55776;SDS011;54079;44.540;18.784;2024-01-30T09:30:48;22.35;;;18.13;;
55776;SDS011;54079;44.540;18.784;2024-01-30T09:33:14;24.75;;;18.88;;
55776;SDS011;54079;44.540;18.784;2024-01-30T09:35:40;30.52;;;21.95;;
55776;SDS011;54079;44.540;18.784;2024-01-30T09:38:06;35.28;;;24.98;;
55776;SDS011;54079;44.540;18.784;2024-01-30T09:40:32;39.85;;;28.63;;
55776;SDS011;54079;44.540;18.784;2024-01-30T09:42:58;36.50;;;23.70;;
55776;SDS011;54079;44.540;18.784;2024-01-30T09:45:27;31.38;;;21.23;;
55776;SDS011;54079;44.540;18.784;2024-01-30T09:47:55;33.17;;;24.38;;
55776;SDS011;54079;44.540;18.784;2024-01-30T09:50:24;33.40;;;24.48;;
55776;SDS011;54079;44.540;18.784;2024-01-30T09:52:50;28.63;;;20.75;;
55776;SDS011;54079;44.540;18.784;2024-01-30T09:55:18;26.80;;;19.35;;
55776;SDS011;54079;44.540;18.784;2024-01-30T09:57:44;26.08;;;19.52;;
55776;SDS011;54079;44.540;18.784;2024-01-30T10:00:10;27.00;;;19.00;;
55776;SDS011;54079;44.540;18.784;2024-01-30T10:02:36;27.75;;;18.42;;
55776;SDS011;54079;44.540;18.784;2024-01-30T10:05:03;33.47;;;19.58;;
55776;SDS011;54079;44.540;18.784;2024-01-30T10:07:30;24.10;;;17.50;;
55776;SDS011;54079;44.540;18.784;2024-01-30T10:09:56;28.20;;;18.85;;
55776;SDS011;54079;44.540;18.784;2024-01-30T10:12:23;25.50;;;16.55;;
55776;SDS011;54079;44.540;18.784;2024-01-30T10:14:51;22.27;;;15.65;;
55776;SDS011;54079;44.540;18.784;2024-01-30T10:17:17;23.38;;;15.52;;
55776;SDS011;54079;44.540;18.784;2024-01-30T10:19:45;22.73;;;15.43;;
55776;SDS011;54079;44.540;18.784;2024-01-30T10:22:11;22.20;;;15.88;;
55776;SDS011;54079;44.540;18.784;2024-01-30T10:24:37;23.75;;;16.20;;
55776;SDS011;54079;44.540;18.784;2024-01-30T10:27:03;21.67;;;13.30;;
55776;SDS011;54079;44.540;18.784;2024-01-30T10:29:31;22.95;;;13.93;;
55776;SDS011;54079;44.540;18.784;2024-01-30T10:32:00;23.08;;;14.88;;
55776;SDS011;54079;44.540;18.784;2024-01-30T10:34:27;30.52;;;18.13;;
55776;SDS011;54079;44.540;18.784;2024-01-30T10:37:15;23.88;;;16.98;;
55776;SDS011;54079;44.540;18.784;2024-01-30T10:39:42;30.88;;;19.95;;
55776;SDS011;54079;44.540;18.784;2024-01-30T10:42:12;18.83;;;12.48;;
55776;SDS011;54079;44.540;18.784;2024-01-30T10:45:00;24.27;;;16.35;;
55776;SDS011;54079;44.540;18.784;2024-01-30T10:47:27;30.80;;;18.58;;
55776;SDS011;54079;44.540;18.784;2024-01-30T10:49:54;35.33;;;21.13;;
55776;SDS011;54079;44.540;18.784;2024-01-30T10:52:22;40.20;;;24.90;;
55776;SDS011;54079;44.540;18.784;2024-01-30T10:54:54;32.85;;;21.92;;
55776;SDS011;54079;44.540;18.784;2024-01-30T10:57:24;31.27;;;20.95;;
55776;SDS011;54079;44.540;18.784;2024-01-30T10:59:51;32.50;;;21.30;;
55776;SDS011;54079;44.540;18.784;2024-01-30T11:02:20;21.92;;;14.70;;
55776;SDS011;54079;44.540;18.784;2024-01-30T11:04:49;20.63;;;13.40;;
55776;SDS011;54079;44.540;18.784;2024-01-30T11:07:19;24.77;;;17.25;;
55776;SDS011;54079;44.540;18.784;2024-01-30T11:09:51;17.27;;;11.70;;
55776;SDS011;54079;44.540;18.784;2024-01-30T11:12:31;18.05;;;11.82;;
55776;SDS011;54079;44.540;18.784;2024-01-30T11:15:08;14.30;;;9.70;;
55776;SDS011;54079;44.540;18.784;2024-01-30T11:20:20;21.63;;;14.15;;
55776;SDS011;54079;44.540;18.784;2024-01-30T11:22:57;15.50;;;10.60;;
55776;SDS011;54079;44.540;18.784;2024-01-30T11:25:24;17.40;;;10.80;;
55776;SDS011;54079;44.540;18.784;2024-01-30T11:27:54;15.98;;;10.73;;
55776;SDS011;54079;44.540;18.784;2024-01-30T11:30:21;14.25;;;9.32;;
55776;SDS011;54079;44.540;18.784;2024-01-30T11:33:42;17.60;;;11.90;;
55776;SDS011;54079;44.540;18.784;2024-01-30T11:35:56;14.90;;;9.60;;
55776;SDS011;54079;44.540;18.784;2024-01-30T11:38:23;22.25;;;13.98;;
55776;SDS011;54079;44.540;18.784;2024-01-30T11:40:53;16.48;;;10.57;;
55776;SDS011;54079;44.540;18.784;2024-01-30T11:43:21;15.15;;;8.43;;
55776;SDS011;54079;44.540;18.784;2024-01-30T11:45:48;10.50;;;6.25;;
55776;SDS011;54079;44.540;18.784;2024-01-30T11:48:14;16.83;;;9.18;;
55776;SDS011;54079;44.540;18.784;2024-01-30T11:50:41;18.17;;;11.85;;
55776;SDS011;54079;44.540;18.784;2024-01-30T11:53:07;10.82;;;6.28;;
55776;SDS011;54079;44.540;18.784;2024-01-30T11:55:34;5.18;;;3.40;;
55776;SDS011;54079;44.540;18.784;2024-01-30T11:58:02;4.10;;;3.05;;
55776;SDS011;54079;44.540;18.784;2024-01-30T12:00:29;4.60;;;2.72;;
55776;SDS011;54079;44.540;18.784;2024-01-30T12:02:59;10.30;;;6.28;;
55776;SDS011;54079;44.540;18.784;2024-01-30T12:05:26;13.15;;;8.93;;
55776;SDS011;54079;44.540;18.784;2024-01-30T12:07:53;13.63;;;8.95;;
55776;SDS011;54079;44.540;18.784;2024-01-30T12:10:19;16.63;;;10.60;;
55776;SDS011;54079;44.540;18.784;2024-01-30T12:12:46;15.43;;;9.70;;
55776;SDS011;54079;44.540;18.784;2024-01-30T12:15:15;16.40;;;10.38;;
55776;SDS011;54079;44.540;18.784;2024-01-30T12:17:42;8.48;;;6.00;;
55776;SDS011;54079;44.540;18.784;2024-01-30T12:20:15;5.72;;;3.80;;
55776;SDS011;54079;44.540;18.784;2024-01-30T12:22:45;5.95;;;4.43;;
55776;SDS011;54079;44.540;18.784;2024-01-30T12:25:13;32.97;;;20.67;;
55776;SDS011;54079;44.540;18.784;2024-01-30T12:27:44;15.35;;;7.50;;
55776;SDS011;54079;44.540;18.784;2024-01-30T12:30:12;9.45;;;6.57;;
55776;SDS011;54079;44.540;18.784;2024-01-30T12:32:40;3.33;;;2.53;;
55776;SDS011;54079;44.540;18.784;2024-01-30T12:35:08;6.97;;;4.72;;
55776;SDS011;54079;44.540;18.784;2024-01-30T12:37:38;5.07;;;3.58;;
55776;SDS011;54079;44.540;18.784;2024-01-30T12:40:05;20.10;;;12.43;;
55776;SDS011;54079;44.540;18.784;2024-01-30T12:42:32;24.30;;;14.52;;
55776;SDS011;54079;44.540;18.784;2024-01-30T12:44:58;30.10;;;18.80;;
55776;SDS011;54079;44.540;18.784;2024-01-30T12:47:24;20.05;;;12.70;;
55776;SDS011;54079;44.540;18.784;2024-01-30T12:49:51;20.30;;;13.20;;
55776;SDS011;54079;44.540;18.784;2024-01-30T12:52:19;6.22;;;3.95;;
55776;SDS011;54079;44.540;18.784;2024-01-30T12:54:46;4.03;;;2.60;;
55776;SDS011;54079;44.540;18.784;2024-01-30T12:57:15;10.68;;;6.70;;
55776;SDS011;54079;44.540;18.784;2024-01-30T12:59:42;19.38;;;11.63;;
55776;SDS011;54079;44.540;18.784;2024-01-30T13:02:09;9.27;;;5.25;;
55776;SDS011;54079;44.540;18.784;2024-01-30T13:04:35;25.83;;;15.25;;
55776;SDS011;54079;44.540;18.784;2024-01-30T13:07:02;15.90;;;9.85;;
55776;SDS011;54079;44.540;18.784;2024-01-30T13:09:29;9.18;;;6.03;;
55776;SDS011;54079;44.540;18.784;2024-01-30T13:11:56;8.30;;;5.45;;
55776;SDS011;54079;44.540;18.784;2024-01-30T13:14:22;6.82;;;4.55;;
55776;SDS011;54079;44.540;18.784;2024-01-30T13:16:50;7.93;;;5.05;;
55776;SDS011;54079;44.540;18.784;2024-01-30T13:19:16;11.18;;;7.88;;
55776;SDS011;54079;44.540;18.784;2024-01-30T13:21:42;24.75;;;16.85;;
55776;SDS011;54079;44.540;18.784;2024-01-30T13:24:08;22.25;;;12.93;;
55776;SDS011;54079;44.540;18.784;2024-01-30T13:26:34;23.63;;;16.17;;
55776;SDS011;54079;44.540;18.784;2024-01-30T13:29:01;23.27;;;15.20;;
55776;SDS011;54079;44.540;18.784;2024-01-30T13:31:27;19.00;;;10.63;;
55776;SDS011;54079;44.540;18.784;2024-01-30T13:33:53;18.52;;;10.73;;
55776;SDS011;54079;44.540;18.784;2024-01-30T13:36:20;20.33;;;11.13;;
55776;SDS011;54079;44.540;18.784;2024-01-30T13:38:47;20.85;;;13.70;;
55776;SDS011;54079;44.540;18.784;2024-01-30T13:41:13;18.25;;;11.95;;
55776;SDS011;54079;44.540;18.784;2024-01-30T13:43:39;21.77;;;14.05;;
55776;SDS011;54079;44.540;18.784;2024-01-30T13:46:05;3.47;;;2.80;;
55776;SDS011;54079;44.540;18.784;2024-01-30T13:48:31;5.70;;;2.83;;
55776;SDS011;54079;44.540;18.784;2024-01-30T13:50:57;3.28;;;2.47;;
55776;SDS011;54079;44.540;18.784;2024-01-30T13:53:23;5.28;;;3.58;;
55776;SDS011;54079;44.540;18.784;2024-01-30T13:55:49;12.52;;;8.48;;
55776;SDS011;54079;44.540;18.784;2024-01-30T13:58:15;17.73;;;11.10;;
55776;SDS011;54079;44.540;18.784;2024-01-30T14:00:41;9.52;;;5.63;;
55776;SDS011;54079;44.540;18.784;2024-01-30T14:03:07;4.50;;;3.25;;
55776;SDS011;54079;44.540;18.784;2024-01-30T14:05:33;14.88;;;8.55;;
55776;SDS011;54079;44.540;18.784;2024-01-30T14:07:59;5.53;;;3.70;;
55776;SDS011;54079;44.540;18.784;2024-01-30T14:10:26;13.13;;;7.22;;
55776;SDS011;54079;44.540;18.784;2024-01-30T14:12:52;16.17;;;8.98;;
55776;SDS011;54079;44.540;18.784;2024-01-30T14:15:18;14.45;;;9.70;;
55776;SDS011;54079;44.540;18.784;2024-01-30T14:17:44;13.55;;;9.00;;
55776;SDS011;54079;44.540;18.784;2024-01-30T14:20:10;14.35;;;8.55;;
55776;SDS011;54079;44.540;18.784;2024-01-30T14:22:36;5.88;;;3.63;;
55776;SDS011;54079;44.540;18.784;2024-01-30T14:25:03;5.90;;;4.32;;